Time;durP1;ratioP1;P1;durP2;ratioP2;P2;SDS_P1;SDS_P2;PMS_P1;PMS_P2;Temp;Humidity;BMP_temperature;BMP_pressure;BME280_temperature;BME280_humidity;BME280_pressure;Samples;Min_cycle;Max_cycle;Signal;HPM_P1;HPM_P2
2021/08/14 00:00:33;;;;;;;20.98;16.52;;;22.20;97.60;;;;;;2039505;29;20042;-72
2021/08/14 00:01:34;;;;;;;19.55;16.42;;;22.20;97.20;;;;;;2039737;29;20078;-73
2021/08/14 00:02:35;;;;;;;21.52;16.45;;;22.20;98.10;;;;;;2039827;29;20051;-72
2021/08/14 00:03:35;;;;;;;19.50;16.77;;;22.20;98.40;;;;;;2040490;29;20040;-72
2021/08/14 00:04:36;;;;;;;19.70;15.98;;;22.20;98.60;;;;;;2039641;29;20114;-73
2021/08/14 00:05:37;;;;;;;20.42;16.23;;;22.20;98.30;;;;;;2039179;29;20167;-73
2021/08/14 00:06:37;;;;;;;20.40;15.95;;;22.20;98.10;;;;;;2039851;29;20163;-72
2021/08/14 00:07:38;;;;;;;21.00;16.17;;;22.20;98.20;;;;;;2040330;29;20032;-72
2021/08/14 00:08:38;;;;;;;20.35;15.57;;;22.10;97.60;;;;;;2040005;29;20028;-72
2021/08/14 00:09:39;;;;;;;20.27;16.40;;;22.10;97.50;;;;;;2040193;29;20069;-73
2021/08/14 00:10:40;;;;;;;21.40;15.60;;;22.10;97.00;;;;;;2039807;29;20093;-72
2021/08/14 00:11:40;;;;;;;19.10;15.40;;;22.10;96.90;;;;;;2039559;29;20777;-72
2021/08/14 00:12:41;;;;;;;20.25;15.27;;;22.10;96.90;;;;;;2039571;29;20032;-72
2021/08/14 00:13:42;;;;;;;20.45;16.10;;;22.10;97.10;;;;;;2040441;29;20495;-72
2021/08/14 00:14:42;;;;;;;18.73;15.60;;;22.00;97.30;;;;;;2040031;29;20090;-73
2021/08/14 00:15:43;;;;;;;20.13;15.00;;;22.00;97.30;;;;;;2040239;29;20036;-72
2021/08/14 00:16:43;;;;;;;22.25;16.10;;;22.00;97.40;;;;;;2040236;29;20043;-73
2021/08/14 00:17:44;;;;;;;19.17;15.18;;;22.00;98.20;;;;;;2040188;29;20032;-72
2021/08/14 00:18:45;;;;;;;23.45;15.88;;;22.00;98.70;;;;;;2039889;29;20078;-72
2021/08/14 00:19:45;;;;;;;19.77;15.63;;;22.00;98.90;;;;;;2040145;29;20024;-72
2021/08/14 00:20:46;;;;;;;20.48;15.50;;;22.00;99.50;;;;;;2039714;29;20445;-73
2021/08/14 00:21:46;;;;;;;19.88;14.85;;;22.00;99.20;;;;;;2040320;29;20024;-72
2021/08/14 00:22:47;;;;;;;18.75;14.77;;;22.00;99.00;;;;;;2040170;29;20468;-72
2021/08/14 00:23:47;;;;;;;20.63;15.40;;;22.00;99.00;;;;;;2040268;29;20063;-72
2021/08/14 00:24:48;;;;;;;18.05;14.45;;;22.00;99.00;;;;;;2040273;29;20039;-72
2021/08/14 00:25:48;;;;;;;19.25;14.63;;;22.00;99.20;;;;;;2040193;29;20032;-72
2021/08/14 00:26:51;;;;;;;19.70;15.35;;;22.00;99.00;;;;;;2040310;29;20027;-72
2021/08/14 00:27:52;;;;;;;20.60;14.55;;;21.90;98.80;;;;;;2039574;29;20039;-72
2021/08/14 00:28:52;;;;;;;19.55;14.75;;;21.90;98.50;;;;;;2031191;29;20028;-72
2021/08/14 00:29:53;;;;;;;18.73;14.48;;;22.00;98.10;;;;;;2031679;29;20039;-73
2021/08/14 00:30:53;;;;;;;19.70;14.82;;;22.00;97.90;;;;;;2039200;29;20056;-72
2021/08/14 00:31:54;;;;;;;22.52;15.20;;;22.00;98.00;;;;;;2040257;29;20110;-72
2021/08/14 00:32:54;;;;;;;17.23;13.82;;;22.00;97.70;;;;;;2040238;29;20144;-72
2021/08/14 00:33:55;;;;;;;16.63;13.55;;;22.00;97.80;;;;;;2040169;29;20110;-72
2021/08/14 00:34:56;;;;;;;16.40;13.60;;;22.00;97.90;;;;;;2040249;29;20023;-72
2021/08/14 00:35:56;;;;;;;18.48;13.75;;;22.00;97.70;;;;;;2040204;29;20063;-72
2021/08/14 00:36:57;;;;;;;18.55;13.93;;;22.10;97.40;;;;;;2040175;29;20035;-72
2021/08/14 00:37:58;;;;;;;18.52;13.65;;;22.00;97.30;;;;;;2040187;29;20035;-73
2021/08/14 00:38:59;;;;;;;20.60;14.80;;;22.00;97.40;;;;;;2039814;29;20042;-72
2021/08/14 00:40:00;;;;;;;22.13;14.65;;;22.10;97.80;;;;;;2040211;29;20031;-72
2021/08/14 00:41:01;;;;;;;22.02;14.57;;;22.10;97.80;;;;;;2039862;29;20106;-72
2021/08/14 00:42:01;;;;;;;18.65;14.02;;;22.10;97.80;;;;;;2040299;29;20628;-72
2021/08/14 00:43:03;;;;;;;18.50;14.15;;;22.10;97.80;;;;;;2040088;29;20039;-72
2021/08/14 00:44:04;;;;;;;18.23;14.02;;;22.10;97.50;;;;;;2040233;29;20027;-72
2021/08/14 00:45:05;;;;;;;19.20;15.43;;;22.10;97.30;;;;;;2039707;29;20082;-72
2021/08/14 00:46:06;;;;;;;21.90;14.77;;;22.10;97.70;;;;;;2039556;29;20042;-72
2021/08/14 00:47:07;;;;;;;20.70;14.43;;;22.10;97.30;;;;;;2040318;29;20090;-72
2021/08/14 00:48:09;;;;;;;20.13;13.48;;;22.10;96.60;;;;;;2040684;29;20500;-72
2021/08/14 00:49:10;;;;;;;18.73;13.93;;;22.10;96.30;;;;;;2041484;29;20093;-72
2021/08/14 00:50:11;;;;;;;24.95;13.70;;;22.10;96.10;;;;;;2041535;29;20023;-73
2021/08/14 00:51:12;;;;;;;19.90;13.88;;;22.10;95.90;;;;;;2041145;29;20503;-72
2021/08/14 00:52:12;;;;;;;20.50;14.10;;;22.10;96.00;;;;;;2041874;29;20134;-72
2021/08/14 00:53:13;;;;;;;21.58;13.98;;;22.10;96.00;;;;;;2040864;29;20040;-72
2021/08/14 00:54:13;;;;;;;17.50;13.60;;;22.10;95.90;;;;;;2040273;29;20110;-72
2021/08/14 00:55:14;;;;;;;18.08;12.80;;;22.10;95.90;;;;;;2040081;29;20365;-72
2021/08/14 00:56:15;;;;;;;16.15;13.02;;;22.20;95.90;;;;;;2040348;29;20103;-72
2021/08/14 00:57:16;;;;;;;18.48;14.00;;;22.20;96.10;;;;;;2040405;29;20032;-72
2021/08/14 00:58:17;;;;;;;18.10;13.75;;;22.20;96.40;;;;;;2040157;29;20407;-72
2021/08/14 00:59:17;;;;;;;17.33;12.95;;;22.20;96.40;;;;;;2039878;29;20030;-72
2021/08/14 01:00:18;;;;;;;16.73;13.13;;;22.20;96.20;;;;;;2039838;29;20136;-72
2021/08/14 01:01:22;;;;;;;17.92;13.13;;;22.20;96.30;;;;;;2040158;29;20035;-72
2021/08/14 01:02:23;;;;;;;16.55;13.15;;;22.20;96.00;;;;;;2040089;29;20068;-72
2021/08/14 01:03:25;;;;;;;15.88;12.75;;;22.20;95.90;;;;;;2039917;29;20024;-72
2021/08/14 01:04:28;;;;;;;17.40;12.75;;;22.20;96.00;;;;;;2040226;29;20070;-72
2021/08/14 01:05:29;;;;;;;16.65;12.85;;;22.20;95.80;;;;;;2039516;29;20039;-72
2021/08/14 01:06:30;;;;;;;17.35;12.73;;;22.20;95.60;;;;;;2039563;29;20116;-72
2021/08/14 01:07:31;;;;;;;13.85;11.95;;;22.30;95.70;;;;;;2040153;29;20136;-72
2021/08/14 01:08:31;;;;;;;14.40;12.73;;;22.20;95.60;;;;;;2040109;29;20597;-72
2021/08/14 01:09:32;;;;;;;15.35;12.50;;;22.30;95.50;;;;;;2039778;29;20043;-72
2021/08/14 01:10:33;;;;;;;15.93;12.70;;;22.30;95.30;;;;;;2039707;29;20039;-72
2021/08/14 01:11:36;;;;;;;18.60;13.43;;;22.30;95.50;;;;;;2039938;29;20035;-72
2021/08/14 01:12:37;;;;;;;18.40;12.95;;;22.20;95.50;;;;;;2040080;29;20035;-72
2021/08/14 01:13:38;;;;;;;15.60;12.48;;;22.20;95.50;;;;;;2039990;29;20104;-72
2021/08/14 01:14:39;;;;;;;18.35;13.77;;;22.20;95.70;;;;;;2040134;29;20054;-72
2021/08/14 01:15:50;;;;;;;19.77;13.23;;;22.20;95.90;;;;;;2039974;29;20070;-72
2021/08/14 01:16:51;;;;;;;19.00;13.75;;;22.10;96.10;;;;;;2040176;29;20039;-72
2021/08/14 01:17:52;;;;;;;16.95;12.77;;;22.10;96.30;;;;;;2041132;29;20023;-72
2021/08/14 01:18:52;;;;;;;15.57;12.68;;;22.10;96.20;;;;;;2041271;29;20042;-72
2021/08/14 01:19:54;;;;;;;16.90;12.98;;;22.10;96.20;;;;;;2041470;29;20163;-72
2021/08/14 01:20:56;;;;;;;20.73;12.85;;;22.10;96.20;;;;;;2041048;29;20030;-72
2021/08/14 01:21:58;;;;;;;16.00;13.15;;;22.10;96.40;;;;;;2040934;29;20474;-72
2021/08/14 01:22:58;;;;;;;19.85;14.10;;;22.10;96.50;;;;;;2030524;29;20036;-72
2021/08/14 01:24:01;;;;;;;18.30;13.90;;;22.10;96.60;;;;;;2032578;29;20484;-72
2021/08/14 01:25:04;;;;;;;17.75;13.73;;;22.00;96.80;;;;;;2040709;29;20044;-72
2021/08/14 01:26:10;;;;;;;16.48;13.30;;;22.00;97.30;;;;;;2040638;29;20031;-72
2021/08/14 01:27:14;;;;;;;17.50;13.77;;;22.00;97.40;;;;;;2041378;29;20062;-72
2021/08/14 01:28:15;;;;;;;15.15;13.45;;;22.00;97.70;;;;;;2041174;29;20034;-72
2021/08/14 01:29:24;;;;;;;17.30;13.13;;;21.90;98.00;;;;;;2040753;29;20419;-72
2021/08/14 01:30:25;;;;;;;20.25;13.38;;;21.90;98.20;;;;;;2040129;29;20044;-72
2021/08/14 01:31:25;;;;;;;18.98;13.50;;;21.90;98.00;;;;;;2041261;29;20032;-72
2021/08/14 01:32:26;;;;;;;18.05;13.93;;;21.90;97.80;;;;;;2041329;29;20566;-72
2021/08/14 01:33:28;;;;;;;19.30;14.15;;;21.90;97.60;;;;;;2041363;29;20066;-71
2021/08/14 01:34:28;;;;;;;17.30;14.45;;;21.90;97.70;;;;;;2041580;29;20036;-72
2021/08/14 01:35:29;;;;;;;18.30;13.68;;;21.90;97.80;;;;;;2040790;29;20036;-72
2021/08/14 01:36:30;;;;;;;17.80;13.73;;;21.90;97.70;;;;;;2040609;29;20038;-72
2021/08/14 01:37:31;;;;;;;16.40;13.45;;;21.90;97.80;;;;;;2041080;29;20496;-72
2021/08/14 01:38:31;;;;;;;17.95;13.32;;;21.90;98.10;;;;;;2039655;29;20035;-72
2021/08/14 01:39:32;;;;;;;19.50;13.90;;;21.90;98.40;;;;;;2037615;29;20116;-72
2021/08/14 01:40:33;;;;;;;15.05;13.07;;;21.90;98.60;;;;;;2040192;29;20066;-72
2021/08/14 01:41:34;;;;;;;17.83;13.02;;;21.80;98.40;;;;;;2038645;29;20792;-72
2021/08/14 01:42:34;;;;;;;16.70;13.07;;;21.80;98.60;;;;;;2041281;29;20051;-72
2021/08/14 01:43:56;;;;;;;18.17;13.80;;;21.90;98.60;;;;;;2040338;29;20062;-71
2021/08/14 01:44:56;;;;;;;16.08;13.25;;;21.80;98.50;;;;;;2041637;29;20036;-72
2021/08/14 01:45:57;;;;;;;15.23;12.80;;;21.80;98.70;;;;;;2041718;29;20040;-72
2021/08/14 01:46:58;;;;;;;16.10;12.80;;;21.70;99.00;;;;;;2041658;29;20028;-72
2021/08/14 01:47:59;;;;;;;15.32;12.73;;;21.70;98.80;;;;;;2041989;29;20042;-72
2021/08/14 01:49:00;;;;;;;16.30;13.02;;;21.70;98.80;;;;;;2042928;29;20020;-71
2021/08/14 01:50:00;;;;;;;16.50;12.63;;;21.70;99.00;;;;;;2042485;29;20028;-72
2021/08/14 01:51:01;;;;;;;14.90;13.18;;;21.70;99.10;;;;;;2041978;29;20035;-72
2021/08/14 01:52:10;;;;;;;18.75;13.50;;;21.60;99.00;;;;;;2042255;29;20078;-72
2021/08/14 01:53:11;;;;;;;17.50;13.40;;;21.70;99.00;;;;;;2042080;29;20024;-72
2021/08/14 01:54:12;;;;;;;17.88;14.35;;;21.60;99.00;;;;;;2042206;29;20431;-72
2021/08/14 01:55:13;;;;;;;17.92;14.50;;;21.60;99.00;;;;;;2042226;29;20024;-71
2021/08/14 01:56:14;;;;;;;17.67;14.27;;;21.60;99.10;;;;;;2041056;29;20047;-72
2021/08/14 01:57:16;;;;;;;15.65;13.20;;;21.60;99.40;;;;;;2041845;29;20038;-71
2021/08/14 01:58:16;;;;;;;14.75;13.02;;;21.60;99.60;;;;;;2041386;29;20040;-72
2021/08/14 01:59:17;;;;;;;14.15;12.60;;;21.50;99.60;;;;;;2041221;29;20512;-72
2021/08/14 02:00:18;;;;;;;15.80;13.63;;;21.60;99.70;;;;;;2041167;29;20031;-72
2021/08/14 02:01:19;;;;;;;16.38;13.63;;;21.60;99.90;;;;;;2040687;29;20098;-73
2021/08/14 02:02:20;;;;;;;16.77;13.60;;;21.50;99.90;;;;;;2040678;29;20709;-73
2021/08/14 02:03:20;;;;;;;16.98;14.30;;;21.50;99.90;;;;;;2041014;29;20032;-73
2021/08/14 02:04:21;;;;;;;18.73;14.70;;;21.50;99.80;;;;;;2041172;29;20045;-74
2021/08/14 02:05:22;;;;;;;18.88;14.50;;;21.50;99.80;;;;;;2041028;29;20082;-73
2021/08/14 02:06:26;;;;;;;15.98;13.60;;;21.40;99.80;;;;;;2040814;29;20448;-72
2021/08/14 02:07:26;;;;;;;15.27;13.55;;;21.40;99.90;;;;;;2041050;29;20442;-73
2021/08/14 02:08:27;;;;;;;17.63;13.75;;;21.40;99.90;;;;;;2041056;29;20143;-73
2021/08/14 02:09:28;;;;;;;17.40;14.48;;;21.40;99.90;;;;;;2040009;29;20780;-72
2021/08/14 02:10:28;;;;;;;17.80;14.88;;;21.40;99.90;;;;;;2039913;29;20041;-73
2021/08/14 02:11:34;;;;;;;15.38;13.27;;;21.30;99.90;;;;;;2040421;29;20050;-72
2021/08/14 02:12:34;;;;;;;15.65;13.90;;;21.30;99.90;;;;;;2040792;29;20460;-73
2021/08/14 02:13:35;;;;;;;17.63;13.07;;;21.30;99.90;;;;;;2048067;29;20035;-73
2021/08/14 02:14:35;;;;;;;15.90;13.60;;;21.30;99.90;;;;;;2041053;29;20036;-73
2021/08/14 02:15:36;;;;;;;18.48;14.05;;;21.30;99.90;;;;;;2041011;29;20063;-73
2021/08/14 02:16:36;;;;;;;19.40;15.15;;;21.20;99.90;;;;;;2041044;29;20504;-73
2021/08/14 02:17:37;;;;;;;17.33;14.93;;;21.20;99.90;;;;;;2041131;29;20028;-72
2021/08/14 02:18:38;;;;;;;21.58;15.77;;;21.20;99.90;;;;;;2040778;29;20377;-73
2021/08/14 02:19:38;;;;;;;20.05;14.98;;;21.20;99.90;;;;;;2040954;29;20028;-73
2021/08/14 02:20:39;;;;;;;16.35;14.13;;;21.20;99.90;;;;;;2040170;29;20039;-73
2021/08/14 02:21:39;;;;;;;15.10;13.48;;;21.20;99.90;;;;;;2041034;29;20058;-73
2021/08/14 02:22:40;;;;;;;14.80;13.25;;;21.20;99.90;;;;;;2040340;29;20110;-73
2021/08/14 02:23:41;;;;;;;15.80;13.70;;;21.20;99.90;;;;;;2040325;29;20046;-73
2021/08/14 02:24:42;;;;;;;20.98;15.27;;;21.20;99.90;;;;;;2040862;29;20396;-73
2021/08/14 02:25:42;;;;;;;18.77;14.70;;;21.30;99.90;;;;;;2040982;29;20039;-73
2021/08/14 02:26:43;;;;;;;16.95;13.73;;;21.20;99.90;;;;;;2040939;29;20102;-73
2021/08/14 02:27:43;;;;;;;16.45;13.52;;;21.20;99.90;;;;;;2040463;29;20039;-72
2021/08/14 02:28:44;;;;;;;17.80;14.13;;;21.30;99.90;;;;;;2039642;29;20027;-73
2021/08/14 02:29:45;;;;;;;16.80;13.63;;;21.30;99.90;;;;;;2039969;29;20466;-73
2021/08/14 02:30:45;;;;;;;19.10;14.23;;;21.30;99.90;;;;;;2039840;29;20031;-73
2021/08/14 02:31:46;;;;;;;15.85;14.10;;;21.30;99.60;;;;;;2040190;29;20050;-73
2021/08/14 02:32:47;;;;;;;16.17;13.50;;;21.20;99.70;;;;;;2040956;29;20135;-72
2021/08/14 02:33:48;;;;;;;16.45;12.85;;;21.30;99.80;;;;;;2040384;29;20031;-72
2021/08/14 02:34:48;;;;;;;15.55;12.90;;;21.30;99.80;;;;;;2040312;29;20444;-73
2021/08/14 02:35:49;;;;;;;16.83;13.30;;;21.30;99.90;;;;;;2040573;29;20039;-72
2021/08/14 02:36:49;;;;;;;14.55;12.85;;;21.30;99.90;;;;;;2040408;29;20035;-73
2021/08/14 02:37:50;;;;;;;19.73;13.88;;;21.40;99.80;;;;;;2040396;29;20040;-73
2021/08/14 02:38:51;;;;;;;16.08;13.90;;;21.40;99.70;;;;;;2040464;29;20024;-73
2021/08/14 02:39:52;;;;;;;15.45;13.07;;;21.40;99.70;;;;;;2040783;29;20039;-72
2021/08/14 02:40:52;;;;;;;15.88;12.88;;;21.40;99.70;;;;;;2040392;29;20032;-72
2021/08/14 02:41:53;;;;;;;14.45;12.60;;;21.40;99.80;;;;;;2040828;29;20051;-72
2021/08/14 02:42:53;;;;;;;16.73;13.13;;;21.40;99.80;;;;;;2040402;29;20035;-73
2021/08/14 02:43:54;;;;;;;15.40;13.45;;;21.40;99.80;;;;;;2040816;29;20024;-73
2021/08/14 02:44:54;;;;;;;15.45;12.93;;;21.30;99.80;;;;;;2040669;29;20768;-73
2021/08/14 02:45:56;;;;;;;14.75;13.18;;;21.40;99.70;;;;;;2040845;29;20032;-73
2021/08/14 02:46:56;;;;;;;14.18;12.68;;;21.40;99.70;;;;;;2040879;29;20024;-73
2021/08/14 02:48:00;;;;;;;13.93;12.02;;;21.30;99.70;;;;;;2040784;29;20512;-72
2021/08/14 02:49:01;;;;;;;16.08;13.20;;;21.30;99.30;;;;;;2039933;29;20474;-72
2021/08/14 02:50:02;;;;;;;14.43;12.48;;;21.40;98.70;;;;;;2039983;29;20032;-73
2021/08/14 02:51:03;;;;;;;14.48;12.45;;;21.40;98.90;;;;;;2039719;29;20099;-73
2021/08/14 02:52:04;;;;;;;17.60;13.85;;;21.40;98.90;;;;;;2040110;29;20035;-72
2021/08/14 02:53:04;;;;;;;18.90;13.60;;;21.30;98.50;;;;;;2040698;29;20028;-73
2021/08/14 02:54:05;;;;;;;14.43;12.65;;;21.30;98.10;;;;;;2040764;29;20023;-72
2021/08/14 02:55:06;;;;;;;15.57;13.27;;;21.30;98.30;;;;;;2040773;29;20044;-72
2021/08/14 02:56:06;;;;;;;20.55;13.23;;;21.30;98.10;;;;;;2040771;29;20065;-73
2021/08/14 02:57:07;;;;;;;14.10;12.52;;;21.30;98.10;;;;;;2040727;29;20063;-72
2021/08/14 02:58:08;;;;;;;19.05;13.63;;;21.30;98.00;;;;;;2040236;29;20039;-72
2021/08/14 02:59:08;;;;;;;17.48;14.07;;;21.30;97.90;;;;;;2040201;29;20042;-72
2021/08/14 03:00:09;;;;;;;15.80;13.02;;;21.30;98.10;;;;;;2040308;29;20027;-73
2021/08/14 03:01:10;;;;;;;17.38;13.95;;;21.30;98.20;;;;;;2040662;29;20031;-72
2021/08/14 03:02:10;;;;;;;17.00;13.32;;;21.30;98.20;;;;;;2040666;29;20023;-72
2021/08/14 03:03:13;;;;;;;14.02;12.32;;;21.30;98.30;;;;;;2040799;29;20024;-73
2021/08/14 03:04:14;;;;;;;15.07;11.85;;;21.30;98.00;;;;;;2040090;29;20122;-72
2021/08/14 03:05:14;;;;;;;13.52;12.05;;;21.30;98.10;;;;;;2039653;29;20059;-72
2021/08/14 03:06:22;;;;;;;16.52;12.52;;;21.30;97.80;;;;;;2039934;29;20036;-73
2021/08/14 03:07:23;;;;;;;15.15;12.18;;;21.30;97.70;;;;;;2040076;29;20122;-73
2021/08/14 03:08:23;;;;;;;14.10;11.98;;;21.30;97.50;;;;;;2040584;29;20035;-73
2021/08/14 03:09:24;;;;;;;16.25;12.50;;;21.30;97.30;;;;;;2040375;29;20032;-73
2021/08/14 03:10:25;;;;;;;21.13;13.05;;;21.30;97.50;;;;;;2040387;29;20032;-72
2021/08/14 03:11:26;;;;;;;15.18;11.90;;;21.30;97.10;;;;;;2040694;29;20091;-72
2021/08/14 03:12:27;;;;;;;12.75;11.27;;;21.20;97.30;;;;;;2040095;29;20701;-72
2021/08/14 03:13:27;;;;;;;16.55;12.20;;;21.20;97.40;;;;;;2040681;29;20040;-73
2021/08/14 03:14:28;;;;;;;15.40;11.70;;;21.20;97.50;;;;;;2040769;29;20483;-72
2021/08/14 03:15:28;;;;;;;14.88;12.07;;;21.10;97.60;;;;;;2040602;29;20498;-73
2021/08/14 03:16:29;;;;;;;14.55;12.18;;;21.20;97.80;;;;;;2040779;29;20399;-72
2021/08/14 03:17:30;;;;;;;18.70;12.80;;;21.10;97.70;;;;;;2040633;29;20553;-72
2021/08/14 03:18:30;;;;;;;14.55;12.05;;;21.10;97.70;;;;;;2040662;29;20039;-72
2021/08/14 03:19:32;;;;;;;17.10;12.52;;;21.00;97.80;;;;;;2039854;29;20505;-73
2021/08/14 03:20:33;;;;;;;17.92;12.07;;;21.00;98.00;;;;;;2040255;29;20039;-72
2021/08/14 03:21:34;;;;;;;16.38;11.55;;;20.90;98.20;;;;;;2040627;29;20028;-72
2021/08/14 03:22:35;;;;;;;13.15;11.30;;;20.90;98.30;;;;;;2039794;29;20036;-72
2021/08/14 03:23:36;;;;;;;15.38;12.75;;;20.80;98.20;;;;;;2039852;29;20075;-73
2021/08/14 03:24:37;;;;;;;14.05;11.98;;;20.80;98.30;;;;;;2040449;29;20040;-73
2021/08/14 03:25:38;;;;;;;16.40;12.13;;;20.80;98.30;;;;;;2040577;29;20031;-72
2021/08/14 03:26:39;;;;;;;16.77;11.23;;;20.80;98.40;;;;;;2040529;29;20027;-73
2021/08/14 03:27:39;;;;;;;12.95;11.00;;;20.70;98.60;;;;;;2040156;29;20373;-72
2021/08/14 03:28:40;;;;;;;13.75;11.85;;;20.70;99.00;;;;;;2040130;29;20067;-73
2021/08/14 03:29:40;;;;;;;13.88;11.35;;;20.70;99.00;;;;;;2040351;29;20027;-73
2021/08/14 03:30:41;;;;;;;14.15;11.15;;;20.60;99.10;;;;;;2039460;29;20036;-72
2021/08/14 03:31:41;;;;;;;14.40;11.38;;;20.60;99.20;;;;;;2039893;29;20043;-73
2021/08/14 03:32:43;;;;;;;17.05;12.95;;;20.60;99.30;;;;;;2039836;29;20130;-72
2021/08/14 03:33:44;;;;;;;15.80;11.98;;;20.60;99.30;;;;;;2039834;29;20039;-73
2021/08/14 03:34:45;;;;;;;13.65;11.45;;;20.60;99.60;;;;;;2039215;29;20035;-72
2021/08/14 03:35:45;;;;;;;13.57;11.38;;;20.50;99.70;;;;;;2039869;29;20094;-73
2021/08/14 03:36:46;;;;;;;13.20;11.50;;;20.60;99.90;;;;;;2040598;29;20043;-72
2021/08/14 03:37:46;;;;;;;17.25;12.40;;;20.50;99.90;;;;;;2040566;29;20039;-72
2021/08/14 03:38:47;;;;;;;15.20;12.00;;;20.50;99.90;;;;;;2040273;29;20063;-72
2021/08/14 03:39:47;;;;;;;14.45;11.73;;;20.50;99.90;;;;;;2040109;29;20020;-73
2021/08/14 03:40:48;;;;;;;15.10;11.52;;;20.50;99.90;;;;;;2039445;29;20118;-73
2021/08/14 03:41:49;;;;;;;14.20;11.02;;;20.40;99.90;;;;;;2040332;29;20039;-73
2021/08/14 03:42:49;;;;;;;16.40;11.80;;;20.50;99.90;;;;;;2040611;29;20070;-73
2021/08/14 03:43:50;;;;;;;14.85;11.40;;;20.40;99.90;;;;;;2040532;29;20038;-73
2021/08/14 03:44:50;;;;;;;15.73;10.95;;;20.40;99.90;;;;;;2040616;29;20051;-73
2021/08/14 03:45:53;;;;;;;15.35;11.85;;;20.40;99.90;;;;;;2040060;29;20067;-73
2021/08/14 03:46:54;;;;;;;16.35;12.15;;;20.40;99.90;;;;;;2040037;29;20030;-73
2021/08/14 03:47:55;;;;;;;17.83;12.00;;;20.30;99.90;;;;;;2041409;29;20119;-73
2021/08/14 03:48:56;;;;;;;16.02;11.52;;;20.30;99.90;;;;;;2045327;29;20039;-73
2021/08/14 03:49:56;;;;;;;14.45;11.50;;;20.30;99.90;;;;;;2048564;28;20071;-73
2021/08/14 03:50:57;;;;;;;16.48;11.50;;;20.30;99.90;;;;;;2048957;29;20067;-72
2021/08/14 03:51:58;;;;;;;13.73;11.30;;;20.30;99.90;;;;;;2043830;29;20043;-73
2021/08/14 03:52:58;;;;;;;15.18;11.90;;;20.20;99.90;;;;;;2045717;29;20044;-73
2021/08/14 03:53:59;;;;;;;13.50;11.35;;;20.30;99.90;;;;;;2042234;29;20059;-73
2021/08/14 03:55:02;;;;;;;17.65;12.38;;;20.20;99.90;;;;;;2041204;29;20043;-73
2021/08/14 03:56:03;;;;;;;14.18;11.80;;;20.30;99.90;;;;;;2046724;29;20028;-72
2021/08/14 03:57:03;;;;;;;13.75;11.43;;;20.20;99.90;;;;;;2043573;29;20030;-73
2021/08/14 03:58:04;;;;;;;15.82;11.60;;;20.20;99.90;;;;;;2040843;29;20035;-72
2021/08/14 03:59:04;;;;;;;13.45;11.20;;;20.20;99.90;;;;;;2040539;29;20035;-72
2021/08/14 04:00:06;;;;;;;14.48;11.90;;;20.10;99.90;;;;;;2040704;29;20032;-72
2021/08/14 04:01:06;;;;;;;14.30;11.60;;;20.10;99.90;;;;;;2039455;29;20423;-73
2021/08/14 04:02:07;;;;;;;12.75;10.80;;;20.10;99.90;;;;;;2039858;29;20028;-72
2021/08/14 04:03:08;;;;;;;13.57;10.50;;;20.20;99.90;;;;;;2039753;29;20035;-72
2021/08/14 04:04:08;;;;;;;12.52;10.15;;;20.20;99.90;;;;;;2039366;29;20034;-72
2021/08/14 04:05:09;;;;;;;11.85;10.50;;;20.10;99.90;;;;;;2040413;29;20106;-73
2021/08/14 04:06:09;;;;;;;13.23;10.60;;;20.10;99.90;;;;;;2040573;29;20024;-73
2021/08/14 04:07:10;;;;;;;11.18;10.00;;;20.10;99.90;;;;;;2040355;29;20475;-72
2021/08/14 04:08:10;;;;;;;11.25;10.00;;;20.10;99.90;;;;;;2040435;29;20034;-73
2021/08/14 04:09:11;;;;;;;12.23;9.93;;;20.10;99.90;;;;;;2040063;29;20024;-72
2021/08/14 04:10:12;;;;;;;12.40;10.20;;;20.00;99.90;;;;;;2039769;29;20024;-73
2021/08/14 04:11:12;;;;;;;10.82;9.73;;;20.00;99.90;;;;;;2040182;29;20027;-72
2021/08/14 04:12:13;;;;;;;11.85;9.75;;;20.00;99.90;;;;;;2040311;29;20034;-73
2021/08/14 04:13:14;;;;;;;11.25;10.07;;;20.00;99.90;;;;;;2040468;29;20106;-72
2021/08/14 04:14:14;;;;;;;11.63;9.80;;;20.00;99.90;;;;;;2040483;29;20447;-72
2021/08/14 04:15:15;;;;;;;10.95;9.32;;;20.00;99.90;;;;;;2040460;29;20027;-72
2021/08/14 04:16:15;;;;;;;12.25;10.55;;;20.00;99.90;;;;;;2040459;29;20035;-72
2021/08/14 04:17:16;;;;;;;11.18;9.98;;;20.00;99.90;;;;;;2040323;29;20480;-73
2021/08/14 04:18:16;;;;;;;12.57;10.18;;;20.00;99.90;;;;;;2040437;29;20038;-73
2021/08/14 04:19:17;;;;;;;11.68;10.07;;;20.00;99.90;;;;;;2039529;29;20032;-73
2021/08/14 04:20:17;;;;;;;12.48;10.57;;;19.90;99.90;;;;;;2039849;29;20031;-72
2021/08/14 04:21:18;;;;;;;11.77;10.18;;;20.00;99.90;;;;;;2040286;29;20032;-72
2021/08/14 04:22:18;;;;;;;11.20;9.95;;;20.00;99.90;;;;;;2040214;29;20778;-72
2021/08/14 04:23:19;;;;;;;11.32;10.13;;;20.00;99.90;;;;;;2040303;29;20464;-73
2021/08/14 04:24:19;;;;;;;13.93;10.85;;;20.00;99.90;;;;;;2040451;29;20349;-72
2021/08/14 04:25:20;;;;;;;12.32;10.23;;;20.00;99.90;;;;;;2040429;29;20027;-72
2021/08/14 04:26:21;;;;;;;11.50;10.30;;;20.00;99.90;;;;;;2040164;29;20035;-72
2021/08/14 04:27:22;;;;;;;11.90;10.27;;;20.00;99.90;;;;;;2040440;29;20032;-73
2021/08/14 04:28:22;;;;;;;13.95;10.00;;;20.00;99.90;;;;;;2039824;29;20050;-72
2021/08/14 04:29:23;;;;;;;14.50;9.27;;;20.00;99.90;;;;;;2039273;29;20031;-72
2021/08/14 04:30:24;;;;;;;11.00;9.75;;;20.00;99.90;;;;;;2039203;29;20024;-72
2021/08/14 04:31:24;;;;;;;12.25;9.82;;;20.00;99.90;;;;;;2039735;29;20130;-72
2021/08/14 04:32:25;;;;;;;11.50;9.60;;;20.00;99.90;;;;;;2041695;29;20761;-72
2021/08/14 04:33:25;;;;;;;11.25;10.05;;;20.00;99.90;;;;;;2032069;29;20067;-72
2021/08/14 04:34:26;;;;;;;14.70;9.82;;;20.00;99.90;;;;;;2032140;29;20115;-73
2021/08/14 04:35:26;;;;;;;12.32;10.15;;;20.10;99.90;;;;;;2040454;29;20499;-72
2021/08/14 04:36:27;;;;;;;12.27;9.85;;;20.10;99.90;;;;;;2040875;29;20031;-73
2021/08/14 04:37:28;;;;;;;13.07;10.45;;;20.10;99.90;;;;;;2040957;29;20216;-73
2021/08/14 04:38:28;;;;;;;11.68;10.38;;;20.10;99.90;;;;;;2041215;29;20032;-72
2021/08/14 04:39:29;;;;;;;12.68;10.23;;;20.20;99.90;;;;;;2039984;29;20032;-72
2021/08/14 04:40:29;;;;;;;10.85;9.75;;;20.20;99.90;;;;;;2039477;29;20479;-73
2021/08/14 04:41:30;;;;;;;12.13;9.98;;;20.30;99.90;;;;;;2040441;29;20032;-73
2021/08/14 04:42:30;;;;;;;12.38;10.05;;;20.30;99.90;;;;;;2040926;29;20043;-72
2021/08/14 04:43:31;;;;;;;12.93;10.10;;;20.30;99.90;;;;;;2040607;29;20032;-72
2021/08/14 04:44:33;;;;;;;10.90;9.57;;;20.40;99.90;;;;;;2040425;29;20036;-73
2021/08/14 04:45:33;;;;;;;12.25;9.75;;;20.40;99.90;;;;;;2040454;29;20035;-73
2021/08/14 04:46:34;;;;;;;13.43;9.85;;;20.40;99.90;;;;;;2040335;29;20484;-72
2021/08/14 04:47:35;;;;;;;11.18;9.90;;;20.40;99.90;;;;;;2040384;29;20052;-73
2021/08/14 04:48:35;;;;;;;13.00;10.23;;;20.40;99.90;;;;;;2039831;29;20043;-72
2021/08/14 04:49:36;;;;;;;11.00;9.60;;;20.50;99.90;;;;;;2042283;29;20039;-74
2021/08/14 04:50:37;;;;;;;10.60;9.52;;;20.60;99.90;;;;;;2033779;29;20087;-74
2021/08/14 04:51:38;;;;;;;14.98;11.93;;;20.70;99.90;;;;;;2033905;29;20532;-71
2021/08/14 04:52:39;;;;;;;12.30;10.55;;;20.80;99.90;;;;;;2026107;29;20071;-73
2021/08/14 04:53:39;;;;;;;11.75;10.13;;;20.90;99.80;;;;;;2035211;29;20048;-72
2021/08/14 04:54:40;;;;;;;12.13;10.50;;;21.00;99.40;;;;;;2044261;29;20039;-74
2021/08/14 04:55:44;;;;;;;15.98;9.98;;;21.10;98.80;;;;;;2045152;29;20035;-74
2021/08/14 04:56:47;;;;;;;13.68;10.27;;;21.10;98.40;;;;;;2043581;29;20196;-71
2021/08/14 04:57:51;;;;;;;12.38;9.48;;;21.20;98.20;;;;;;2043751;29;20065;-72
2021/08/14 04:58:51;;;;;;;12.60;9.82;;;21.20;98.00;;;;;;2043918;29;20605;-71
2021/08/14 04:59:52;;;;;;;14.32;11.30;;;21.20;97.90;;;;;;2043576;29;20046;-72
2021/08/14 05:00:53;;;;;;;13.35;10.32;;;21.20;97.60;;;;;;2042576;29;20068;-71
2021/08/14 05:01:57;;;;;;;14.48;10.35;;;21.20;97.60;;;;;;2042378;29;20032;-74
2021/08/14 05:03:00;;;;;;;12.90;9.70;;;21.20;97.50;;;;;;2042715;29;20051;-74
2021/08/14 05:04:04;;;;;;;10.95;9.73;;;21.20;97.40;;;;;;2034055;29;20020;-71
2021/08/14 05:05:05;;;;;;;13.07;10.52;;;21.20;97.30;;;;;;2041427;29;20040;-72
2021/08/14 05:06:07;;;;;;;11.75;10.02;;;21.20;97.20;;;;;;2041122;29;20027;-72
2021/08/14 05:07:08;;;;;;;11.77;10.18;;;21.20;97.20;;;;;;2041219;29;20024;-72
2021/08/14 05:08:08;;;;;;;10.77;9.23;;;21.40;97.10;;;;;;2041693;29;20028;-72
2021/08/14 05:09:09;;;;;;;11.45;9.45;;;21.60;96.70;;;;;;2040837;29;20031;-72
2021/08/14 05:10:13;;;;;;;11.82;9.98;;;21.80;95.60;;;;;;2041020;29;20059;-74